Time;durP1;ratioP1;P1;durP2;ratioP2;P2;SDS_P1;SDS_P2;PMS_P1;PMS_P2;Temp;Humidity;BMP_temperature;BMP_pressure;BME280_temperature;BME280_humidity;BME280_pressure;Samples;Min_cycle;Max_cycle;Signal;HPM_P1;HPM_P2
2022/12/31 00:01:31;1103638.00;3.68;1916.93;132575.00;0.44;229.77;;;;;16.20;1.00;;;;;;2270774;55;3754;-87
2022/12/31 00:03:58;887719.00;2.96;1534.56;139585.00;0.47;241.86;;;;;16.20;1.00;;;;;;2267941;61;1983;-88
2022/12/31 00:06:27;982140.00;3.27;1700.87;88657.00;0.30;153.99;;;;;16.30;1.00;;;;;;2268065;61;907;-90
2022/12/31 00:08:56;885039.00;2.95;1529.86;86953.00;0.29;151.05;;;;;16.00;1.00;;;;;;2267797;61;1138;-89
2022/12/31 00:11:25;1078399.00;3.59;1871.84;94122.00;0.31;163.42;;;;;16.10;1.00;;;;;;2267890;61;1722;-89
2022/12/31 00:13:54;902607.00;3.01;1560.70;137087.00;0.46;237.55;;;;;16.30;1.00;;;;;;2268027;61;998;-87
2022/12/31 00:18:54;572258.00;1.91;986.34;0.00;0.00;0.62;;;;;16.60;1.00;;;;;;2265847;61;1413;-89
2022/12/31 00:21:22;413163.00;1.38;712.44;0.00;0.00;0.62;;;;;16.40;1.00;;;;;;2264095;61;1396;-90
2022/12/31 00:23:49;739742.00;2.47;1276.23;44182.00;0.15;77.12;;;;;16.30;1.00;;;;;;2264022;61;1914;-89
2022/12/31 00:26:19;1008572.00;3.36;1747.66;2942.00;0.01;5.72;;;;;16.50;1.00;;;;;;2263993;61;992;-88
2022/12/31 00:28:47;586838.00;1.96;1011.50;5508.00;0.02;10.17;;;;;16.50;1.00;;;;;;2264101;61;1508;-88
2022/12/31 00:31:17;796437.00;2.65;1374.91;45594.00;0.15;79.57;;;;;16.30;1.00;;;;;;2263877;61;1381;-88
2022/12/31 00:33:45;864319.00;2.88;1493.54;67351.00;0.22;117.18;;;;;16.20;1.00;;;;;;2263992;61;1254;-88
2022/12/31 00:36:15;890267.00;2.97;1539.03;27758.00;0.09;48.70;;;;;16.00;1.00;;;;;;2264057;61;1142;-89
2022/12/31 00:38:44;593645.00;1.98;1023.25;12600.00;0.04;22.45;;;;;15.90;1.00;;;;;;2264189;61;927;-90
2022/12/31 00:41:12;618131.00;2.06;1065.54;22612.00;0.08;39.79;;;;;16.10;1.00;;;;;;2263845;61;1405;-88
2022/12/31 00:43:39;887094.00;2.96;1533.46;24979.00;0.08;43.89;;;;;16.00;1.00;;;;;;2263911;61;1927;-88
2022/12/31 00:46:07;848033.00;2.83;1465.03;21720.00;0.07;38.25;;;;;16.10;1.00;;;;;;2264644;61;1063;-88
2022/12/31 00:48:36;608747.00;2.03;1049.33;27273.00;0.09;47.86;;;;;16.10;1.00;;;;;;2264504;61;1014;-88
2022/12/31 00:51:06;816227.00;2.72;1409.44;8934.00;0.03;16.10;;;;;16.10;1.00;;;;;;2264568;61;1410;-87
2022/12/31 00:53:33;652239.00;2.17;1124.51;29203.00;0.10;51.20;;;;;16.00;1.00;;;;;;2264528;61;1134;-88
2022/12/31 00:56:02;902933.00;3.01;1561.27;49055.00;0.16;85.55;;;;;16.00;1.00;;;;;;2264682;61;884;-89
2022/12/31 00:58:29;659740.00;2.20;1137.49;70384.00;0.23;122.42;;;;;15.90;1.00;;;;;;2264623;61;1592;-90
2022/12/31 01:00:56;853709.00;2.85;1474.96;98873.00;0.33;171.63;;;;;16.00;1.00;;;;;;2264512;61;1563;-88
2022/12/31 01:03:24;672314.00;2.24;1159.26;37705.00;0.13;65.92;;;;;15.90;1.00;;;;;;2264702;61;1767;-87
2022/12/31 01:05:52;855783.00;2.85;1478.59;111253.00;0.37;192.99;;;;;16.00;1.00;;;;;;2264539;61;2006;-88
2022/12/31 01:08:20;690190.00;2.30;1190.23;60718.00;0.20;105.72;;;;;16.00;1.00;;;;;;2264503;61;1319;-89
2022/12/31 01:13:35;451873.00;1.51;779.00;23834.00;0.08;41.91;;;;;16.00;1.00;;;;;;2264683;61;662;-88
2022/12/31 01:16:07;810932.00;2.70;1400.20;71849.00;0.24;124.96;;;;;15.80;1.00;;;;;;2264490;61;1037;-89
2022/12/31 01:18:34;601010.00;2.00;1035.96;18897.00;0.06;33.36;;;;;15.70;1.00;;;;;;2264516;61;1018;-88
2022/12/31 01:21:04;621481.00;2.07;1071.33;0.00;0.00;0.62;;;;;15.70;1.00;;;;;;2264447;61;1642;-88
2022/12/31 01:23:32;685386.00;2.28;1181.91;28323.00;0.09;49.68;;;;;15.60;1.00;;;;;;2264463;61;971;-87
2022/12/31 01:26:01;569113.00;1.90;980.92;86573.00;0.29;150.39;;;;;15.60;1.00;;;;;;2264458;61;1936;-91
2022/12/31 01:28:28;389046.00;1.30;670.97;0.00;0.00;0.62;;;;;15.70;1.00;;;;;;2264535;61;1507;-87
2022/12/31 01:30:55;507891.00;1.69;875.41;5854.00;0.02;10.77;;;;;15.80;1.00;;;;;;2264430;61;1416;-88
2022/12/31 01:33:22;1147444.00;3.82;1995.48;53906.00;0.18;93.94;;;;;15.90;1.00;;;;;;2283551;56;3788;-88
2022/12/31 01:35:49;815365.00;2.72;1407.93;73259.00;0.24;127.39;;;;;15.90;1.00;;;;;;2268561;61;1447;-88
2022/12/31 01:38:17;791125.00;2.64;1365.65;10581.00;0.04;18.96;;;;;15.80;1.00;;;;;;2268422;61;1051;-89
2022/12/31 01:40:44;561834.00;1.87;968.36;21936.00;0.07;38.62;;;;;15.80;1.00;;;;;;2268448;61;1013;-88
2022/12/31 01:43:16;748821.00;2.50;1292.01;0.00;0.00;0.62;;;;;15.70;1.00;;;;;;2268502;61;1438;-87
2022/12/31 01:45:45;635741.00;2.12;1095.97;17600.00;0.06;31.11;;;;;15.70;1.00;;;;;;2268342;61;1987;-88
2022/12/31 01:48:17;471819.00;1.57;813.32;95937.00;0.32;166.56;;;;;15.60;1.00;;;;;;2268457;61;1173;-88
2022/12/31 01:50:47;703834.00;2.35;1213.89;187176.00;0.62;323.85;;;;;15.60;1.00;;;;;;2268496;61;954;-88
2022/12/31 01:53:16;501836.00;1.67;864.98;85093.00;0.28;147.83;;;;;15.70;1.00;;;;;;2268558;61;932;-89
2022/12/31 01:55:50;935580.00;3.12;1618.70;142587.00;0.48;247.03;;;;;15.70;1.00;;;;;;2268463;61;1112;-89
2022/12/31 01:58:21;862812.00;2.88;1490.90;106970.00;0.36;185.60;;;;;15.90;1.00;;;;;;2268519;61;916;-88
2022/12/31 02:00:48;1040679.00;3.47;1804.65;98857.00;0.33;171.60;;;;;15.80;1.00;;;;;;2268312;61;1702;-90
2022/12/31 02:03:16;814617.00;2.72;1406.63;94960.00;0.32;164.87;;;;;16.10;1.00;;;;;;2268439;61;1837;-88
2022/12/31 02:05:49;118032680.00;393.44;66610332.00;90126.00;0.30;156.53;;;;;15.90;1.00;;;;;;2268297;61;1918;-89
2022/12/31 02:08:16;1014812.00;3.38;1758.72;135348.00;0.45;234.55;;;;;16.00;1.00;;;;;;2268415;61;1016;-88
2022/12/31 02:10:45;1000793.00;3.34;1733.88;92012.00;0.31;159.78;;;;;16.10;1.00;;;;;;2275586;56;3747;-89
2022/12/31 02:15:51;528115.00;1.76;910.24;83612.00;0.28;145.28;;;;;16.20;1.00;;;;;;2269450;55;3621;-88
2022/12/31 02:23:53;286208.00;0.95;494.21;75462.00;0.25;131.20;;;;;16.10;1.00;;;;;;2269850;61;1305;-87
2022/12/31 02:26:45;338987.00;1.13;584.93;0.00;0.00;0.62;;;;;16.50;1.00;;;;;;2268306;61;2022;-88
2022/12/31 02:29:45;775437.00;2.58;1338.32;98111.00;0.33;170.31;;;;;16.60;1.00;;;;;;2268431;61;991;-87
2022/12/31 02:32:17;223599.00;0.75;386.54;0.00;0.00;0.62;;;;;16.80;1.00;;;;;;2268306;61;1398;-88
2022/12/31 02:34:52;151272.00;0.50;262.00;0.00;0.00;0.62;;;;;16.90;1.00;;;;;;2268385;61;909;-87
2022/12/31 02:37:24;376187.00;1.25;648.87;86252.00;0.29;149.84;;;;;16.90;1.00;;;;;;2268343;61;1007;-90
2022/12/31 02:39:52;440628.00;1.47;759.66;111502.00;0.37;193.42;;;;;16.80;1.00;;;;;;2268112;61;1011;-88
2022/12/31 02:42:19;485866.00;1.62;837.49;97108.00;0.32;168.58;;;;;16.90;1.00;;;;;;2276148;40;3637;-88
2022/12/31 02:44:46;364661.00;1.22;629.06;87112.00;0.29;151.32;;;;;17.00;1.00;;;;;;2268277;61;1916;-88
2022/12/31 02:47:28;277833.00;0.93;479.81;67407.00;0.22;117.28;;;;;17.00;1.00;;;;;;2268157;61;1676;-88
2022/12/31 02:50:09;386154.00;1.29;666.00;81841.00;0.27;142.22;;;;;16.90;1.00;;;;;;2268112;61;1014;-89
2022/12/31 02:52:48;399516.00;1.33;688.97;88211.00;0.29;153.22;;;;;16.80;1.00;;;;;;2268362;61;1412;-89
2022/12/31 02:55:24;304402.00;1.01;525.49;90802.00;0.30;157.69;;;;;16.60;1.00;;;;;;2268318;61;1532;-89
2022/12/31 02:57:58;301932.00;1.01;521.24;87035.00;0.29;151.19;;;;;16.80;1.00;;;;;;2268353;61;928;-88
2022/12/31 03:02:56;218579.00;0.73;377.90;0.00;0.00;0.62;;;;;17.00;1.00;;;;;;2266006;61;1361;-88
2022/12/31 03:05:26;0.00;0.00;0.62;0.00;0.00;0.62;;;;;16.90;1.00;;;;;;2264272;61;1998;-89
2022/12/31 03:07:54;284615.00;0.95;491.47;110746.00;0.37;192.12;;;;;16.90;1.00;;;;;;2264104;61;928;-90
2022/12/31 03:10:22;166624.00;0.56;288.45;0.00;0.00;0.62;;;;;17.00;1.00;;;;;;2264089;61;1547;-88
2022/12/31 03:12:48;75985.00;0.25;132.10;0.00;0.00;0.62;;;;;17.20;1.00;;;;;;2264152;61;1258;-88
2022/12/31 03:15:21;184991.00;0.62;320.08;0.00;0.00;0.62;;;;;17.10;1.00;;;;;;2264197;61;1252;-88
2022/12/31 03:17:51;22619.00;0.08;39.81;0.00;0.00;0.62;;;;;17.10;1.00;;;;;;2264209;61;1106;-88
2022/12/31 03:23:09;53161.00;0.18;92.65;0.00;0.00;0.62;;;;;17.20;1.00;;;;;;2264225;61;1392;-87
2022/12/31 03:25:35;124642.00;0.42;216.09;9411.00;0.03;16.93;;;;;17.20;1.00;;;;;;2264045;61;1911;-88
2022/12/31 03:28:07;70277.00;0.23;122.24;0.00;0.00;0.62;;;;;17.20;1.00;;;;;;2263975;61;1664;-87
2022/12/31 03:30:36;143378.00;0.48;248.39;0.00;0.00;0.62;;;;;17.10;1.00;;;;;;2264053;61;1087;-87
2022/12/31 03:33:05;111865.00;0.37;194.05;0.00;0.00;0.62;;;;;17.20;1.00;;;;;;2264041;61;1555;-87
2022/12/31 03:35:36;99955.00;0.33;173.49;33225.00;0.11;58.16;;;;;17.20;1.00;;;;;;2264050;61;1566;-87
2022/12/31 03:38:04;149376.00;0.50;258.73;0.00;0.00;0.62;;;;;17.40;1.00;;;;;;2264041;61;1772;-87
2022/12/31 03:40:33;120445.00;0.40;208.85;0.00;0.00;0.62;;;;;17.40;1.00;;;;;;2264130;61;1597;-87
2022/12/31 03:43:02;140870.00;0.47;244.07;0.00;0.00;0.62;;;;;17.40;1.00;;;;;;2282588;56;3812;-87
2022/12/31 03:45:29;0.00;0.00;0.62;0.00;0.00;0.62;;;;;17.50;1.00;;;;;;2268763;61;1996;-87
2022/12/31 03:47:57;23000.00;0.08;40.46;0.00;0.00;0.62;;;;;17.10;1.00;;;;;;2278513;40;3704;-87
2022/12/31 03:50:23;10224.00;0.03;18.34;0.00;0.00;0.62;;;;;17.10;1.00;;;;;;2268085;61;983;-87
2022/12/31 03:52:52;158117.00;0.53;273.79;0.00;0.00;0.62;;;;;17.10;1.00;;;;;;2267994;61;1469;-87
2022/12/31 03:55:19;22024.00;0.07;38.77;0.00;0.00;0.62;;;;;17.40;1.00;;;;;;2268076;61;1015;-88
2022/12/31 03:57:46;176917.00;0.59;306.18;0.00;0.00;0.62;;;;;17.30;1.00;;;;;;2267894;61;1912;-89
2022/12/31 04:00:16;1999.00;0.01;4.08;0.00;0.00;0.62;;;;;17.20;1.00;;;;;;2268118;61;1588;-87
2022/12/31 04:02:43;52941.00;0.18;92.27;0.00;0.00;0.62;;;;;17.20;1.00;;;;;;2268004;61;1583;-88
2022/12/31 04:05:11;161409.00;0.54;279.47;0.00;0.00;0.62;;;;;17.20;1.00;;;;;;2268034;61;1996;-89
2022/12/31 04:12:39;108274.00;0.36;187.85;0.00;0.00;0.62;;;;;17.20;1.00;;;;;;2265333;61;1805;-88
2022/12/31 04:17:35;422237.00;1.41;728.04;0.00;0.00;0.62;;;;;17.20;1.00;;;;;;2276920;40;3670;-89
2022/12/31 04:20:02;0.00;0.00;0.62;0.00;0.00;0.62;;;;;17.10;1.00;;;;;;2268772;61;1006;-88
2022/12/31 04:22:29;159789.00;0.53;276.68;0.00;0.00;0.62;;;;;17.20;1.00;;;;;;2268676;61;1449;-89
2022/12/31 04:24:56;10175.00;0.03;18.25;0.00;0.00;0.62;;;;;17.20;1.00;;;;;;2268640;61;2017;-90
2022/12/31 04:27:23;222545.00;0.74;384.72;0.00;0.00;0.62;;;;;17.10;1.00;;;;;;2268451;61;1575;-89
2022/12/31 04:29:51;238425.00;0.79;412.04;0.00;0.00;0.62;;;;;17.00;1.00;;;;;;2295694;56;3760;-88
2022/12/31 04:32:18;117763.00;0.39;204.22;0.00;0.00;0.62;;;;;16.90;1.00;;;;;;2268277;61;1644;-89
2022/12/31 04:34:45;115681.00;0.39;200.63;0.00;0.00;0.62;;;;;16.80;1.00;;;;;;2268536;61;1635;-89
2022/12/31 04:37:12;70244.00;0.23;122.18;0.00;0.00;0.62;;;;;16.80;1.00;;;;;;2274053;40;3658;-88
2022/12/31 04:39:39;166833.00;0.56;288.81;0.00;0.00;0.62;;;;;16.80;1.00;;;;;;2268512;61;1860;-88
2022/12/31 04:42:06;73313.00;0.24;127.48;0.00;0.00;0.62;;;;;16.70;1.00;;;;;;2271314;40;3676;-89
2022/12/31 04:47:04;432050.00;1.44;744.91;0.00;0.00;0.62;;;;;16.50;1.00;;;;;;2266476;61;1366;-88
2022/12/31 04:56:59;182854.00;0.61;316.40;0.00;0.00;0.62;;;;;16.90;1.00;;;;;;2265936;61;1326;-90
2022/12/31 04:59:26;153151.00;0.51;265.24;0.00;0.00;0.62;;;;;16.60;1.00;;;;;;2264448;61;1491;-88
2022/12/31 05:01:52;13646.00;0.05;24.27;0.00;0.00;0.62;;;;;16.80;1.00;;;;;;2264202;61;1504;-89
2022/12/31 05:04:21;139104.00;0.46;241.03;0.00;0.00;0.62;;;;;16.80;1.00;;;;;;2264487;61;2358;-87
2022/12/31 05:06:48;7709.00;0.03;13.98;0.00;0.00;0.62;;;;;17.00;1.00;;;;;;2264605;61;2003;-87
2022/12/31 05:09:15;37374.00;0.12;65.34;0.00;0.00;0.62;;;;;17.30;1.00;;;;;;2264434;61;997;-86
2022/12/31 05:11:42;159479.00;0.53;276.14;0.00;0.00;0.62;;;;;17.40;1.00;;;;;;2264406;61;1707;-86
2022/12/31 05:14:09;60663.00;0.20;105.62;0.00;0.00;0.62;;;;;17.70;1.00;;;;;;2264383;61;1725;-86
2022/12/31 05:16:36;120653.00;0.40;209.21;0.00;0.00;0.62;;;;;17.80;1.00;;;;;;2264446;61;921;-90
2022/12/31 05:19:05;165911.00;0.55;287.22;0.00;0.00;0.62;;;;;17.90;1.00;;;;;;2264553;61;1439;-88
2022/12/31 05:21:33;5485.00;0.02;10.13;0.00;0.00;0.62;;;;;18.00;1.00;;;;;;2264354;61;1282;-92
2022/12/31 05:24:00;106515.00;0.36;184.82;0.00;0.00;0.62;;;;;18.10;1.00;;;;;;2264532;61;1515;-88
2022/12/31 05:26:27;97257.00;0.32;168.84;0.00;0.00;0.62;;;;;18.20;1.00;;;;;;2264361;61;1919;-89
2022/12/31 05:28:55;125789.00;0.42;218.07;0.00;0.00;0.62;;;;;18.20;1.00;;;;;;2264335;61;874;-87
2022/12/31 05:31:22;5710.00;0.02;10.52;0.00;0.00;0.62;;;;;18.30;1.00;;;;;;2264323;61;1721;-88
2022/12/31 05:33:49;206652.00;0.69;357.37;0.00;0.00;0.62;;;;;18.30;1.00;;;;;;2264361;61;1046;-89
2022/12/31 05:36:16;162277.00;0.54;280.96;0.00;0.00;0.62;;;;;18.50;1.00;;;;;;2264411;61;1902;-87
2022/12/31 05:38:44;88309.00;0.29;153.39;0.00;0.00;0.62;;;;;18.60;1.00;;;;;;2264440;61;1664;-86
2022/12/31 05:41:11;37161.00;0.12;64.98;0.00;0.00;0.62;;;;;18.60;1.00;;;;;;2264485;61;1390;-89
2022/12/31 05:46:08;175725.00;0.59;304.13;0.00;0.00;0.62;;;;;18.30;1.00;;;;;;2266017;61;1900;-88
2022/12/31 05:48:35;21934.00;0.07;38.62;0.00;0.00;0.62;;;;;18.20;1.00;;;;;;2264478;61;960;-88
2022/12/31 05:51:02;23146.00;0.08;40.72;0.00;0.00;0.62;;;;;18.30;1.00;;;;;;2264236;61;1298;-89
2022/12/31 05:53:29;84368.00;0.28;146.58;0.00;0.00;0.62;;;;;18.40;1.00;;;;;;2264407;61;1759;-88
2022/12/31 05:55:57;147901.00;0.49;256.19;0.00;0.00;0.62;;;;;18.30;1.00;;;;;;2264219;61;1041;-88
2022/12/31 06:00:58;252790.00;0.84;436.75;0.00;0.00;0.62;;;;;18.40;1.00;;;;;;2265779;61;1350;-87
2022/12/31 06:03:25;497188.00;1.66;856.98;34740.00;0.12;60.79;;;;;18.50;1.00;;;;;;2264213;61;1107;-87
2022/12/31 06:08:22;246097.00;0.82;425.24;0.00;0.00;0.62;;;;;18.30;1.00;;;;;;2269934;61;1430;-89
2022/12/31 06:10:49;3183.00;0.01;6.14;0.00;0.00;0.62;;;;;18.10;1.00;;;;;;2268306;61;1346;-87
2022/12/31 06:13:18;24681.00;0.08;43.38;0.00;0.00;0.62;;;;;18.10;1.00;;;;;;2268157;61;2383;-89
2022/12/31 06:15:45;3923.00;0.01;7.42;0.00;0.00;0.62;;;;;18.00;1.00;;;;;;2268398;61;1380;-89
2022/12/31 06:18:12;177318.00;0.59;306.87;38768.00;0.13;67.76;;;;;18.00;1.00;;;;;;2268364;61;1711;-88
2022/12/31 06:20:39;65064.00;0.22;113.23;0.00;0.00;0.62;;;;;17.90;1.00;;;;;;2268337;61;929;-86
2022/12/31 06:23:06;94778.00;0.32;164.56;0.00;0.00;0.62;;;;;18.00;1.00;;;;;;2268286;61;1691;-88
2022/12/31 06:25:35;26520.00;0.09;46.56;0.00;0.00;0.62;;;;;18.10;1.00;;;;;;2268370;61;1915;-87
2022/12/31 06:28:02;0.00;0.00;0.62;0.00;0.00;0.62;;;;;18.10;1.00;;;;;;2268316;61;1516;-88
2022/12/31 06:30:31;91679.00;0.31;159.21;0.00;0.00;0.62;;;;;18.20;1.00;;;;;;2268327;61;1427;-89
2022/12/31 06:32:58;99659.00;0.33;172.98;0.00;0.00;0.62;;;;;18.00;1.00;;;;;;2268120;61;1379;-88
2022/12/31 06:37:54;67531.00;0.23;117.49;0.00;0.00;0.62;;;;;17.90;1.00;;;;;;2280173;40;3469;-89
2022/12/31 06:45:31;169025.00;0.56;292.59;0.00;0.00;0.62;;;;;17.70;1.00;;;;;;2265864;61;1970;-87
2022/12/31 06:47:58;155696.00;0.52;269.62;0.00;0.00;0.62;;;;;17.60;1.00;;;;;;2264223;61;914;-88
2022/12/31 06:52:54;286636.00;0.96;494.95;0.00;0.00;0.62;;;;;17.70;1.00;;;;;;2265833;61;1418;-87
2022/12/31 06:55:22;313736.00;1.05;541.53;22378.00;0.07;39.39;;;;;17.90;1.00;;;;;;2311953;40;3575;-87
2022/12/31 06:57:49;83446.00;0.28;144.99;0.00;0.00;0.62;;;;;18.00;1.00;;;;;;2268106;61;1623;-88
2022/12/31 07:00:17;103124.00;0.34;178.96;0.00;0.00;0.62;;;;;18.10;1.00;;;;;;2268017;61;1608;-87
2022/12/31 07:03:07;207826.00;0.69;359.39;0.00;0.00;0.62;;;;;18.10;1.00;;;;;;2268352;61;1404;-87
2022/12/31 07:05:46;192295.00;0.64;332.66;0.00;0.00;0.62;;;;;18.20;1.00;;;;;;2287989;40;3621;-89
2022/12/31 07:08:29;26139.00;0.09;45.90;0.00;0.00;0.62;;;;;18.10;1.00;;;;;;2268822;61;1492;-89
2022/12/31 07:11:05;98204.00;0.33;170.47;0.00;0.00;0.62;;;;;18.10;1.00;;;;;;2268744;61;1578;-87
2022/12/31 07:13:54;806120.00;2.69;1391.80;81608.00;0.27;141.81;;;;;17.90;1.00;;;;;;2268277;61;1056;-90
2022/12/31 07:16:34;207222.00;0.69;358.35;0.00;0.00;0.62;;;;;17.60;1.00;;;;;;2267992;61;1671;-88
2022/12/31 07:19:15;39998.00;0.13;69.88;0.00;0.00;0.62;;;;;17.50;1.00;;;;;;2268061;61;1127;-90
2022/12/31 07:21:43;306724.00;1.02;529.48;95873.00;0.32;166.45;;;;;17.60;1.00;;;;;;2268172;61;1466;-88
2022/12/31 07:24:11;122885.00;0.41;213.06;0.00;0.00;0.62;;;;;17.60;1.00;;;;;;2268186;61;1094;-87
2022/12/31 07:27:01;60049.00;0.20;104.56;0.00;0.00;0.62;;;;;17.60;1.00;;;;;;2267849;61;1996;-86
2022/12/31 07:29:43;251591.00;0.84;434.69;85089.00;0.28;147.83;;;;;17.60;1.00;;;;;;2269579;55;3759;-88
2022/12/31 07:32:28;343290.00;1.14;592.33;88857.00;0.30;154.33;;;;;17.80;1.00;;;;;;2267925;61;1378;-86
2022/12/31 07:35:09;104144.00;0.35;180.72;0.00;0.00;0.62;;;;;17.80;1.00;;;;;;2267960;61;1591;-88
2022/12/31 07:37:46;16584.00;0.06;29.35;0.00;0.00;0.62;;;;;17.60;1.00;;;;;;2268016;61;1304;-89
2022/12/31 07:40:23;76990.00;0.26;133.84;0.00;0.00;0.62;;;;;17.60;1.00;;;;;;2277478;40;3767;-88
2022/12/31 08:00:33;97693.00;0.33;169.59;0.00;0.00;0.62;;;;;18.20;1.00;;;;;;2265568;61;1191;-89
2022/12/31 08:05:45;54046.00;0.18;94.18;0.00;0.00;0.62;;;;;18.00;1.00;;;;;;2303323;40;3670;-88
2022/12/31 08:13:12;273767.00;0.91;472.82;0.00;0.00;0.62;;;;;17.80;1.00;;;;;;2275879;55;3676;-88
2022/12/31 08:15:42;32583.00;0.11;57.05;0.00;0.00;0.62;;;;;18.10;1.00;;;;;;2268576;61;1459;-88
2022/12/31 08:18:09;221108.00;0.74;382.25;56197.00;0.19;97.90;;;;;18.40;1.00;;;;;;2267731;61;999;-87
2022/12/31 08:25:50;297067.00;0.99;512.88;0.00;0.00;0.62;;;;;18.40;1.00;;;;;;2265465;61;1902;-87
2022/12/31 08:28:31;194578.00;0.65;336.59;24988.00;0.08;43.91;;;;;18.30;1.00;;;;;;2302965;55;3752;-88
2022/12/31 08:31:05;82727.00;0.28;143.75;0.00;0.00;0.62;;;;;18.20;1.00;;;;;;2298329;56;3742;-89
2022/12/31 08:33:42;39271.00;0.13;68.63;0.00;0.00;0.62;;;;;18.20;1.00;;;;;;2294401;55;3756;-86
2022/12/31 08:41:18;83622.00;0.28;145.29;0.00;0.00;0.62;;;;;18.50;1.00;;;;;;2299825;55;3626;-86
2022/12/31 08:43:58;92772.00;0.31;161.09;0.00;0.00;0.62;;;;;18.70;1.00;;;;;;2267852;61;1627;-91
2022/12/31 08:49:03;104450.00;0.35;181.25;0.00;0.00;0.62;;;;;18.70;1.00;;;;;;2271144;56;1651;-88
2022/12/31 08:51:30;113847.00;0.38;197.47;0.00;0.00;0.62;;;;;18.70;1.00;;;;;;2268551;61;1758;-88
2022/12/31 08:56:33;344269.00;1.15;594.01;0.00;0.00;0.62;;;;;19.00;1.00;;;;;;2271390;40;3509;-89
2022/12/31 08:59:20;177384.00;0.59;306.98;0.00;0.00;0.62;;;;;18.90;1.00;;;;;;2280052;55;3789;-89
2022/12/31 09:07:00;764293.00;2.55;1318.92;0.00;0.00;0.62;;;;;19.00;1.00;;;;;;2277920;40;3444;-88
2022/12/31 09:14:45;214278.00;0.71;370.50;16486.00;0.05;29.18;;;;;19.10;1.00;;;;;;1449984;40;3190;-87
2022/12/31 09:50:52;144190.00;0.48;249.79;0.00;0.00;0.62;;;;;20.00;1.00;;;;;;2266122;61;1421;-88
2022/12/31 10:01:00;613542.00;2.05;1057.61;83463.00;0.28;145.02;;;;;19.80;1.00;;;;;;2320297;40;2238;-87
2022/12/31 10:03:43;763859.00;2.55;1318.16;7934.00;0.03;14.37;;;;;19.70;1.00;;;;;;2334044;56;3722;-88
2022/12/31 10:29:22;1154826.00;3.85;2008.75;94927.00;0.32;164.81;;;;;19.50;1.00;;;;;;2266525;61;1482;-90
2022/12/31 10:37:06;1175086.00;3.92;2045.24;31169.00;0.10;54.61;;;;;19.50;1.00;;;;;;2266793;61;1034;-88
2022/12/31 10:42:39;1737680.00;5.79;3098.87;52536.00;0.18;91.57;;;;;19.60;1.00;;;;;;2266453;61;1327;-86
2022/12/31 11:23:32;1001619.00;3.34;1735.34;0.00;0.00;0.62;;;;;20.40;1.00;;;;;;2266405;61;1313;-91
2022/12/31 11:29:14;1579211.00;5.26;2793.07;90242.00;0.30;156.73;;;;;20.20;1.00;;;;;;2266549;61;1329;-89
2022/12/31 11:52:39;76430.00;0.25;132.87;0.00;0.00;0.62;;;;;21.50;1.00;;;;;;752281;60;2810;-87
2022/12/31 12:15:21;905008.00;3.02;1564.92;70421.00;0.23;122.49;;;;;21.60;1.00;;;;;;2274286;55;3782;-89
2022/12/31 12:25:23;870378.00;2.90;1504.15;85133.00;0.28;147.90;;;;;21.80;1.00;;;;;;2296906;40;3442;-87
2022/12/31 12:33:01;100282.00;0.33;174.06;0.00;0.00;0.62;;;;;21.40;1.00;;;;;;2269776;61;1373;-87
2022/12/31 12:40:37;234564.00;0.78;405.40;0.00;0.00;0.62;;;;;21.40;1.00;;;;;;2265704;61;1275;-88
2022/12/31 12:43:05;96463.00;0.32;167.47;0.00;0.00;0.62;;;;;21.50;1.00;;;;;;2271572;40;3645;-88
2022/12/31 12:48:17;75735.00;0.25;131.67;0.00;0.00;0.62;;;;;21.40;1.00;;;;;;2261781;61;1916;-89
2022/12/31 12:58:41;732177.00;2.44;1263.08;28641.00;0.10;50.23;;;;;21.60;1.00;;;;;;2266404;61;1215;-89
2022/12/31 13:01:17;36169.00;0.12;63.26;0.00;0.00;0.62;;;;;21.70;1.00;;;;;;2264482;61;1329;-88
2022/12/31 13:04:18;216944.00;0.72;375.09;3779.00;0.01;7.17;;;;;21.50;1.00;;;;;;2270010;55;3757;-86
2022/12/31 13:12:02;852249.00;2.84;1472.40;112130.00;0.37;194.51;;;;;21.50;1.00;;;;;;2262292;61;1305;-89
2022/12/31 13:14:37;1580622.00;5.27;2795.76;289577.00;0.97;500.00;;;;;21.50;1.00;;;;;;2295859;56;3726;-87
2022/12/31 13:17:20;674036.00;2.25;1162.24;62365.00;0.21;108.56;;;;;21.40;1.00;;;;;;2275091;55;3769;-88
2022/12/31 13:19:53;259671.00;0.87;448.58;7473.00;0.02;13.57;;;;;21.60;1.00;;;;;;2268547;61;909;-89
2022/12/31 13:22:26;326715.00;1.09;563.84;81511.00;0.27;141.65;;;;;21.70;1.00;;;;;;2268412;61;1450;-88
2022/12/31 13:25:02;472251.00;1.57;814.06;159512.00;0.53;276.20;;;;;21.80;1.00;;;;;;2268291;61;1566;-88
2022/12/31 13:27:35;460047.00;1.53;793.07;104663.00;0.35;181.62;;;;;21.80;1.00;;;;;;2268553;61;2020;-88
2022/12/31 13:32:40;384775.00;1.28;663.63;74515.00;0.25;129.56;;;;;21.90;1.00;;;;;;2265892;61;1418;-90
2022/12/31 13:35:25;357495.00;1.19;616.74;78921.00;0.26;137.17;;;;;21.80;1.00;;;;;;2264523;61;1610;-90
2022/12/31 13:58:13;879224.00;2.93;1519.66;98486.00;0.33;170.96;;;;;21.90;1.00;;;;;;2108632;40;3442;-88
2022/12/31 14:03:17;1532682.00;5.11;2704.77;166716.00;0.56;288.61;;;;;22.00;1.00;;;;;;2266761;61;1347;-88
2022/12/31 14:05:52;406906.00;1.36;701.68;86787.00;0.29;150.76;;;;;22.00;1.00;;;;;;2265036;61;1054;-90
2022/12/31 14:11:24;296432.00;0.99;511.79;78958.00;0.26;137.24;;;;;22.00;1.00;;;;;;2533886;55;2234;31
2022/12/31 14:16:37;1400876.00;4.67;2457.95;43508.00;0.15;75.96;;;;;21.80;1.00;;;;;;2266664;61;1073;-90
2022/12/31 14:24:14;647551.00;2.16;1116.40;150657.00;0.50;260.94;;;;;21.70;1.00;;;;;;2267046;55;3649;-88
2022/12/31 14:34:22;674128.00;2.25;1162.40;291288.00;0.97;502.94;;;;;21.20;1.00;;;;;;2266128;61;1245;-89
2022/12/31 14:36:59;145577.00;0.49;252.18;0.00;0.00;0.62;;;;;21.10;1.00;;;;;;2283578;56;3749;-89
2022/12/31 14:39:44;225917.00;0.75;390.52;0.00;0.00;0.62;;;;;20.90;1.00;;;;;;2291784;40;3586;-89
2022/12/31 14:42:24;131661.00;0.44;228.19;40227.00;0.13;70.28;;;;;20.50;1.00;;;;;;2267756;61;1658;-89
2022/12/31 14:45:07;26264.00;0.09;46.12;0.00;0.00;0.62;;;;;20.50;1.00;;;;;;2267944;61;1754;-88
2022/12/31 14:50:14;83132.00;0.28;144.45;0.00;0.00;0.62;;;;;20.60;1.00;;;;;;2266173;61;1393;-87
2022/12/31 14:52:53;5922.00;0.02;10.88;0.00;0.00;0.62;;;;;20.50;1.00;;;;;;2264137;61;1350;-89
2022/12/31 14:57:50;501120.00;1.67;863.75;0.00;0.00;0.62;;;;;20.40;1.00;;;;;;2270569;40;3486;-88
2022/12/31 15:02:50;119703.00;0.40;207.57;0.00;0.00;0.62;;;;;20.20;1.00;;;;;;2265929;61;1400;-89
2022/12/31 15:05:21;75388.00;0.25;131.07;0.00;0.00;0.62;;;;;20.10;1.00;;;;;;2264438;61;991;-88
2022/12/31 15:08:01;142558.00;0.48;246.98;0.00;0.00;0.62;;;;;19.90;1.00;;;;;;2264005;61;1919;-89
2022/12/31 15:10:44;117280.00;0.39;203.39;0.00;0.00;0.62;;;;;19.90;1.00;;;;;;2263976;61;2277;-90
2022/12/31 15:16:06;217494.00;0.72;376.03;0.00;0.00;0.62;;;;;20.10;1.00;;;;;;2265909;61;1430;-87
2022/12/31 15:36:20;1821656.00;6.07;3264.32;87729.00;0.29;152.39;;;;;19.60;1.00;;;;;;2262213;61;1417;-88
2022/12/31 15:43:52;437820.00;1.46;754.83;78838.00;0.26;137.03;;;;;19.40;1.00;;;;;;2314314;40;3648;-87
2022/12/31 15:46:24;274421.00;0.91;473.95;0.00;0.00;0.62;;;;;19.30;1.00;;;;;;2314901;40;3573;-89
2022/12/31 16:40:23;589282.00;1.96;1015.72;110450.00;0.37;191.61;;;;;17.80;1.00;;;;;;2267162;61;1330;-89
2022/12/31 17:45:51;1170271.00;3.90;2036.56;50244.00;0.17;87.61;;;;;17.50;1.00;;;;;;2266528;61;1027;-89
2022/12/31 17:48:20;868605.00;2.90;1501.05;31657.00;0.11;55.45;;;;;17.40;1.00;;;;;;2265098;61;1996;-91
2022/12/31 17:50:49;496244.00;1.65;855.36;15349.00;0.05;27.22;;;;;17.20;1.00;;;;;;2265048;61;1528;-87
2022/12/31 17:53:16;272038.00;0.91;469.85;0.00;0.00;0.62;;;;;17.20;1.00;;;;;;2261072;61;1466;-88
2022/12/31 18:58:49;1375061.00;4.58;2410.15;81812.00;0.27;142.17;;;;;16.80;1.00;;;;;;1787557;56;3591;-88
2022/12/31 19:01:28;1003252.00;3.34;1738.23;141281.00;0.47;244.78;;;;;16.80;1.00;;;;;;2337608;56;3755;-88
2022/12/31 19:09:04;1068525.00;3.56;1854.23;168576.00;0.56;291.81;;;;;16.60;1.00;;;;;;1409496;60;2197;-88
2022/12/31 19:11:31;1301191.00;4.34;2274.29;243934.00;0.81;421.52;;;;;16.60;1.00;;;;;;2264729;61;1499;-88
2022/12/31 19:56:51;845098.00;2.82;1459.89;13593.00;0.05;24.17;;;;;15.90;1.00;;;;;;2297473;56;3641;-87